sensor_id;sensor_type;location;lat;lon;timestamp;temperature;humidity
44435;DHT22;30138;20.964;105.830;2023-08-30T00:03:19;30.60;96.00
44435;DHT22;30138;20.964;105.830;2023-08-30T00:08:25;30.60;96.00
44435;DHT22;30138;20.964;105.830;2023-08-30T00:13:31;30.60;95.80
44435;DHT22;30138;20.964;105.830;2023-08-30T00:18:39;30.60;95.80
44435;DHT22;30138;20.964;105.830;2023-08-30T00:23:45;30.60;95.30
44435;DHT22;30138;20.964;105.830;2023-08-30T00:28:50;30.60;95.40
44435;DHT22;30138;20.964;105.830;2023-08-30T00:33:59;30.60;95.10
44435;DHT22;30138;20.964;105.830;2023-08-30T00:39:05;30.60;95.30
44435;DHT22;30138;20.964;105.830;2023-08-30T00:44:12;30.60;94.50
44435;DHT22;30138;20.964;105.830;2023-08-30T00:49:20;30.60;94.20
44435;DHT22;30138;20.964;105.830;2023-08-30T00:54:27;30.60;94.40
44435;DHT22;30138;20.964;105.830;2023-08-30T00:59:33;30.60;94.00
44435;DHT22;30138;20.964;105.830;2023-08-30T01:04:41;30.60;94.30
44435;DHT22;30138;20.964;105.830;2023-08-30T01:09:49;30.60;94.90
44435;DHT22;30138;20.964;105.830;2023-08-30T01:15:00;30.60;95.10
44435;DHT22;30138;20.964;105.830;2023-08-30T01:20:16;30.70;95.40
44435;DHT22;30138;20.964;105.830;2023-08-30T01:25:45;30.70;95.00
44435;DHT22;30138;20.964;105.830;2023-08-30T01:30:58;30.70;95.10
44435;DHT22;30138;20.964;105.830;2023-08-30T01:36:05;30.70;94.50
44435;DHT22;30138;20.964;105.830;2023-08-30T01:41:12;30.70;94.50
44435;DHT22;30138;20.964;105.830;2023-08-30T01:46:20;30.70;94.20
44435;DHT22;30138;20.964;105.830;2023-08-30T01:51:26;30.80;93.90
44435;DHT22;30138;20.964;105.830;2023-08-30T01:56:34;30.80;93.80
44435;DHT22;30138;20.964;105.830;2023-08-30T02:01:41;30.80;93.70
44435;DHT22;30138;20.964;105.830;2023-08-30T02:06:54;30.90;93.70
44435;DHT22;30138;20.964;105.830;2023-08-30T02:12:09;30.80;93.20
44435;DHT22;30138;20.964;105.830;2023-08-30T02:17:23;30.90;93.10
44435;DHT22;30138;20.964;105.830;2023-08-30T02:22:31;30.90;93.20
44435;DHT22;30138;20.964;105.830;2023-08-30T02:27:37;30.90;93.20
44435;DHT22;30138;20.964;105.830;2023-08-30T02:32:46;30.90;92.80
44435;DHT22;30138;20.964;105.830;2023-08-30T02:37:53;31.00;92.20
44435;DHT22;30138;20.964;105.830;2023-08-30T02:42:59;30.90;91.40
44435;DHT22;30138;20.964;105.830;2023-08-30T02:48:07;30.90;91.40
44435;DHT22;30138;20.964;105.830;2023-08-30T02:53:14;31.00;92.10
44435;DHT22;30138;20.964;105.830;2023-08-30T02:58:20;31.00;92.00
44435;DHT22;30138;20.964;105.830;2023-08-30T03:03:33;31.00;91.80
44435;DHT22;30138;20.964;105.830;2023-08-30T03:08:40;31.00;91.50
44435;DHT22;30138;20.964;105.830;2023-08-30T03:13:48;31.10;91.40
44435;DHT22;30138;20.964;105.830;2023-08-30T03:18:56;31.10;90.90
44435;DHT22;30138;20.964;105.830;2023-08-30T03:24:03;31.10;91.10
44435;DHT22;30138;20.964;105.830;2023-08-30T03:29:11;31.10;90.90
44435;DHT22;30138;20.964;105.830;2023-08-30T03:34:19;31.10;90.50
44435;DHT22;30138;20.964;105.830;2023-08-30T03:39:25;31.10;90.80
44435;DHT22;30138;20.964;105.830;2023-08-30T03:44:32;31.20;90.60
44435;DHT22;30138;20.964;105.830;2023-08-30T03:49:39;31.20;90.40
44435;DHT22;30138;20.964;105.830;2023-08-30T03:54:46;31.20;90.30
44435;DHT22;30138;20.964;105.830;2023-08-30T03:59:52;31.20;89.80
44435;DHT22;30138;20.964;105.830;2023-08-30T04:05:00;31.30;90.00
44435;DHT22;30138;20.964;105.830;2023-08-30T04:10:08;31.30;90.10
44435;DHT22;30138;20.964;105.830;2023-08-30T04:15:14;31.30;89.00
44435;DHT22;30138;20.964;105.830;2023-08-30T04:20:21;31.30;88.90
44435;DHT22;30138;20.964;105.830;2023-08-30T04:25:27;31.30;88.10
44435;DHT22;30138;20.964;105.830;2023-08-30T04:30:36;31.30;88.00
44435;DHT22;30138;20.964;105.830;2023-08-30T04:35:49;31.40;88.00
44435;DHT22;30138;20.964;105.830;2023-08-30T04:40:58;31.40;86.80
44435;DHT22;30138;20.964;105.830;2023-08-30T04:46:09;31.40;87.30
44435;DHT22;30138;20.964;105.830;2023-08-30T04:51:17;31.40;86.80
44435;DHT22;30138;20.964;105.830;2023-08-30T04:56:23;31.50;86.30
44435;DHT22;30138;20.964;105.830;2023-08-30T05:01:29;31.50;87.00
44435;DHT22;30138;20.964;105.830;2023-08-30T05:06:38;31.50;86.30
44435;DHT22;30138;20.964;105.830;2023-08-30T05:11:45;31.50;86.90
44435;DHT22;30138;20.964;105.830;2023-08-30T05:16:52;31.60;86.70
44435;DHT22;30138;20.964;105.830;2023-08-30T05:22:01;31.60;86.80
44435;DHT22;30138;20.964;105.830;2023-08-30T05:27:06;31.60;87.60
44435;DHT22;30138;20.964;105.830;2023-08-30T05:32:16;31.60;87.00
44435;DHT22;30138;20.964;105.830;2023-08-30T05:37:40;31.60;87.50
44435;DHT22;30138;20.964;105.830;2023-08-30T05:43:08;31.70;87.20
44435;DHT22;30138;20.964;105.830;2023-08-30T05:48:14;31.70;86.30
44435;DHT22;30138;20.964;105.830;2023-08-30T05:53:23;31.70;85.80
44435;DHT22;30138;20.964;105.830;2023-08-30T05:58:30;31.70;85.90
44435;DHT22;30138;20.964;105.830;2023-08-30T06:03:36;31.80;88.40
44435;DHT22;30138;20.964;105.830;2023-08-30T06:08:45;31.80;88.20
44435;DHT22;30138;20.964;105.830;2023-08-30T06:13:53;31.80;87.10
44435;DHT22;30138;20.964;105.830;2023-08-30T06:19:02;31.90;88.70
44435;DHT22;30138;20.964;105.830;2023-08-30T06:24:10;31.90;88.00
44435;DHT22;30138;20.964;105.830;2023-08-30T06:29:16;31.90;87.70
44435;DHT22;30138;20.964;105.830;2023-08-30T06:34:23;31.90;88.70
44435;DHT22;30138;20.964;105.830;2023-08-30T06:39:35;31.90;88.80
44435;DHT22;30138;20.964;105.830;2023-08-30T06:44:42;32.00;89.30
44435;DHT22;30138;20.964;105.830;2023-08-30T06:49:49;32.00;89.30
44435;DHT22;30138;20.964;105.830;2023-08-30T06:54:58;32.10;89.30
44435;DHT22;30138;20.964;105.830;2023-08-30T07:00:05;32.10;88.30
44435;DHT22;30138;20.964;105.830;2023-08-30T07:05:12;32.10;88.70
44435;DHT22;30138;20.964;105.830;2023-08-30T07:10:20;32.10;88.60
44435;DHT22;30138;20.964;105.830;2023-08-30T07:15:26;32.20;89.10
44435;DHT22;30138;20.964;105.830;2023-08-30T07:20:32;32.20;89.80
44435;DHT22;30138;20.964;105.830;2023-08-30T07:25:41;32.20;89.50
44435;DHT22;30138;20.964;105.830;2023-08-30T07:30:47;32.20;89.30
44435;DHT22;30138;20.964;105.830;2023-08-30T07:35:54;32.30;88.40
44435;DHT22;30138;20.964;105.830;2023-08-30T07:41:03;32.30;88.50
44435;DHT22;30138;20.964;105.830;2023-08-30T07:46:10;32.30;88.70
44435;DHT22;30138;20.964;105.830;2023-08-30T07:51:16;32.30;88.90
44435;DHT22;30138;20.964;105.830;2023-08-30T07:56:24;32.30;89.20
44435;DHT22;30138;20.964;105.830;2023-08-30T08:01:30;32.40;89.20
44435;DHT22;30138;20.964;105.830;2023-08-30T08:06:36;32.40;89.30
44435;DHT22;30138;20.964;105.830;2023-08-30T08:11:44;32.40;89.20
44435;DHT22;30138;20.964;105.830;2023-08-30T08:16:50;32.40;89.10
44435;DHT22;30138;20.964;105.830;2023-08-30T08:21:56;32.50;88.40
44435;DHT22;30138;20.964;105.830;2023-08-30T08:27:06;32.50;88.80
44435;DHT22;30138;20.964;105.830;2023-08-30T08:32:13;32.50;88.70
44435;DHT22;30138;20.964;105.830;2023-08-30T08:37:19;32.50;87.80
44435;DHT22;30138;20.964;105.830;2023-08-30T08:42:28;32.60;87.90
44435;DHT22;30138;20.964;105.830;2023-08-30T08:47:37;32.50;87.50
44435;DHT22;30138;20.964;105.830;2023-08-30T08:52:46;32.60;87.00
44435;DHT22;30138;20.964;105.830;2023-08-30T08:57:57;32.60;87.20
44435;DHT22;30138;20.964;105.830;2023-08-30T09:03:04;32.60;85.80
44435;DHT22;30138;20.964;105.830;2023-08-30T09:08:11;32.60;85.50
44435;DHT22;30138;20.964;105.830;2023-08-30T09:13:19;32.60;85.20
44435;DHT22;30138;20.964;105.830;2023-08-30T09:18:25;32.60;85.10
44435;DHT22;30138;20.964;105.830;2023-08-30T09:23:32;32.70;84.50
44435;DHT22;30138;20.964;105.830;2023-08-30T09:28:44;32.70;84.60
44435;DHT22;30138;20.964;105.830;2023-08-30T09:33:51;32.70;84.70
44435;DHT22;30138;20.964;105.830;2023-08-30T09:39:08;32.70;84.30
44435;DHT22;30138;20.964;105.830;2023-08-30T09:44:17;32.70;84.50
44435;DHT22;30138;20.964;105.830;2023-08-30T09:49:24;32.70;84.20
44435;DHT22;30138;20.964;105.830;2023-08-30T09:54:32;32.70;83.80
44435;DHT22;30138;20.964;105.830;2023-08-30T09:59:42;32.70;83.70
44435;DHT22;30138;20.964;105.830;2023-08-30T10:04:49;32.70;83.50
44435;DHT22;30138;20.964;105.830;2023-08-30T10:09:57;32.80;83.50
44435;DHT22;30138;20.964;105.830;2023-08-30T10:15:06;32.80;83.20
44435;DHT22;30138;20.964;105.830;2023-08-30T10:20:13;32.80;82.50
44435;DHT22;30138;20.964;105.830;2023-08-30T10:25:21;32.70;82.10
44435;DHT22;30138;20.964;105.830;2023-08-30T10:30:31;32.80;82.50
44435;DHT22;30138;20.964;105.830;2023-08-30T10:35:47;32.80;81.60
44435;DHT22;30138;20.964;105.830;2023-08-30T10:40:54;32.80;82.20
44435;DHT22;30138;20.964;105.830;2023-08-30T10:46:05;32.80;82.90
44435;DHT22;30138;20.964;105.830;2023-08-30T10:51:34;32.80;82.80
44435;DHT22;30138;20.964;105.830;2023-08-30T10:56:48;32.80;83.10
44435;DHT22;30138;20.964;105.830;2023-08-30T11:02:02;32.80;82.90
44435;DHT22;30138;20.964;105.830;2023-08-30T11:07:09;32.80;82.90
44435;DHT22;30138;20.964;105.830;2023-08-30T11:12:19;32.80;82.80
44435;DHT22;30138;20.964;105.830;2023-08-30T11:17:29;32.80;83.00
44435;DHT22;30138;20.964;105.830;2023-08-30T11:22:37;32.80;83.00
44435;DHT22;30138;20.964;105.830;2023-08-30T11:27:43;32.80;83.20
44435;DHT22;30138;20.964;105.830;2023-08-30T11:32:51;32.80;83.30
44435;DHT22;30138;20.964;105.830;2023-08-30T11:37:58;32.70;83.40
44435;DHT22;30138;20.964;105.830;2023-08-30T11:43:05;32.80;83.20
44435;DHT22;30138;20.964;105.830;2023-08-30T11:48:14;32.80;83.60
44435;DHT22;30138;20.964;105.830;2023-08-30T11:53:20;32.80;83.70
44435;DHT22;30138;20.964;105.830;2023-08-30T11:58:27;32.80;83.30
44435;DHT22;30138;20.964;105.830;2023-08-30T12:03:34;32.80;83.20
44435;DHT22;30138;20.964;105.830;2023-08-30T12:08:41;32.80;83.30
44435;DHT22;30138;20.964;105.830;2023-08-30T12:13:47;32.80;83.20
44435;DHT22;30138;20.964;105.830;2023-08-30T12:18:55;32.80;83.20
44435;DHT22;30138;20.964;105.830;2023-08-30T12:24:01;32.80;83.20
44435;DHT22;30138;20.964;105.830;2023-08-30T12:29:07;32.80;83.20
44435;DHT22;30138;20.964;105.830;2023-08-30T12:34:16;32.80;83.30
44435;DHT22;30138;20.964;105.830;2023-08-30T12:39:23;32.70;83.20
44435;DHT22;30138;20.964;105.830;2023-08-30T12:44:30;32.70;83.10
44435;DHT22;30138;20.964;105.830;2023-08-30T12:49:38;32.70;83.10
44435;DHT22;30138;20.964;105.830;2023-08-30T12:54:45;32.70;83.20
44435;DHT22;30138;20.964;105.830;2023-08-30T12:59:51;32.70;83.30
44435;DHT22;30138;20.964;105.830;2023-08-30T13:05:01;32.70;82.90
44435;DHT22;30138;20.964;105.830;2023-08-30T13:10:07;32.70;82.90
44435;DHT22;30138;20.964;105.830;2023-08-30T13:15:14;32.70;82.70
44435;DHT22;30138;20.964;105.830;2023-08-30T13:20:23;32.70;82.70
44435;DHT22;30138;20.964;105.830;2023-08-30T13:25:29;32.70;82.60
44435;DHT22;30138;20.964;105.830;2023-08-30T13:30:36;32.70;82.40
44435;DHT22;30138;20.964;105.830;2023-08-30T13:35:43;32.70;82.40
44435;DHT22;30138;20.964;105.830;2023-08-30T13:40:59;32.70;82.20
44435;DHT22;30138;20.964;105.830;2023-08-30T13:46:07;32.70;82.00
44435;DHT22;30138;20.964;105.830;2023-08-30T13:51:20;32.70;81.60
44435;DHT22;30138;20.964;105.830;2023-08-30T13:56:26;32.60;81.40
44435;DHT22;30138;20.964;105.830;2023-08-30T14:01:33;32.60;81.10
44435;DHT22;30138;20.964;105.830;2023-08-30T14:06:41;32.60;81.00
44435;DHT22;30138;20.964;105.830;2023-08-30T14:11:51;32.60;81.00
44435;DHT22;30138;20.964;105.830;2023-08-30T14:16:57;32.60;81.10
44435;DHT22;30138;20.964;105.830;2023-08-30T14:22:05;32.60;81.00
44435;DHT22;30138;20.964;105.830;2023-08-30T14:27:12;32.60;81.10
44435;DHT22;30138;20.964;105.830;2023-08-30T14:32:18;32.60;81.30
44435;DHT22;30138;20.964;105.830;2023-08-30T14:37:27;32.60;81.60
44435;DHT22;30138;20.964;105.830;2023-08-30T14:42:33;32.60;81.80
44435;DHT22;30138;20.964;105.830;2023-08-30T14:47:39;32.60;81.70
44435;DHT22;30138;20.964;105.830;2023-08-30T14:52:46;32.60;82.20
44435;DHT22;30138;20.964;105.830;2023-08-30T14:57:53;32.60;83.30
44435;DHT22;30138;20.964;105.830;2023-08-30T15:03:03;32.60;83.00
44435;DHT22;30138;20.964;105.830;2023-08-30T15:08:12;32.60;83.20
44435;DHT22;30138;20.964;105.830;2023-08-30T15:13:17;32.60;82.60
44435;DHT22;30138;20.964;105.830;2023-08-30T15:18:24;32.60;82.40
44435;DHT22;30138;20.964;105.830;2023-08-30T15:23:32;32.60;82.30
44435;DHT22;30138;20.964;105.830;2023-08-30T15:28:40;32.60;82.20
44435;DHT22;30138;20.964;105.830;2023-08-30T15:33:47;32.60;82.00
44435;DHT22;30138;20.964;105.830;2023-08-30T15:38:54;32.60;82.10
44435;DHT22;30138;20.964;105.830;2023-08-30T15:44:00;32.60;82.20
44435;DHT22;30138;20.964;105.830;2023-08-30T15:49:06;32.60;81.90
44435;DHT22;30138;20.964;105.830;2023-08-30T15:54:14;32.60;81.80
44435;DHT22;30138;20.964;105.830;2023-08-30T15:59:20;32.60;81.70
44435;DHT22;30138;20.964;105.830;2023-08-30T16:04:25;32.60;81.70
44435;DHT22;30138;20.964;105.830;2023-08-30T16:09:33;32.60;82.20
44435;DHT22;30138;20.964;105.830;2023-08-30T16:14:40;32.60;81.30
44435;DHT22;30138;20.964;105.830;2023-08-30T16:19:45;32.50;80.60
44435;DHT22;30138;20.964;105.830;2023-08-30T16:24:54;32.50;80.20
44435;DHT22;30138;20.964;105.830;2023-08-30T16:29:59;32.50;79.90
44435;DHT22;30138;20.964;105.830;2023-08-30T16:35:07;32.50;79.80
44435;DHT22;30138;20.964;105.830;2023-08-30T16:40:16;32.50;79.40
44435;DHT22;30138;20.964;105.830;2023-08-30T16:45:24;32.50;79.20
44435;DHT22;30138;20.964;105.830;2023-08-30T16:50:30;32.50;79.10
44435;DHT22;30138;20.964;105.830;2023-08-30T16:55:42;32.40;78.70
44435;DHT22;30138;20.964;105.830;2023-08-30T17:00:49;32.40;78.80
44435;DHT22;30138;20.964;105.830;2023-08-30T17:05:55;32.40;78.70
44435;DHT22;30138;20.964;105.830;2023-08-30T17:11:06;32.40;78.20
44435;DHT22;30138;20.964;105.830;2023-08-30T17:16:13;32.10;69.20
44435;DHT22;30138;20.964;105.830;2023-08-30T17:21:19;31.70;67.70
44435;DHT22;30138;20.964;105.830;2023-08-30T17:26:34;31.40;63.20
44435;DHT22;30138;20.964;105.830;2023-08-30T17:31:40;31.10;59.90
44435;DHT22;30138;20.964;105.830;2023-08-30T17:36:52;30.90;57.90
44435;DHT22;30138;20.964;105.830;2023-08-30T17:42:16;30.70;56.40
44435;DHT22;30138;20.964;105.830;2023-08-30T17:47:23;30.50;54.80
44435;DHT22;30138;20.964;105.830;2023-08-30T17:52:30;30.30;54.00
44435;DHT22;30138;20.964;105.830;2023-08-30T17:57:40;30.00;53.10
44435;DHT22;30138;20.964;105.830;2023-08-30T18:02:50;29.80;52.50
44435;DHT22;30138;20.964;105.830;2023-08-30T18:07:56;29.70;52.10
44435;DHT22;30138;20.964;105.830;2023-08-30T18:13:04;29.50;51.30
44435;DHT22;30138;20.964;105.830;2023-08-30T18:18:10;29.40;50.70
44435;DHT22;30138;20.964;105.830;2023-08-30T18:23:17;29.20;50.30
44435;DHT22;30138;20.964;105.830;2023-08-30T18:28:24;29.10;50.30
44435;DHT22;30138;20.964;105.830;2023-08-30T18:33:30;29.00;50.00
44435;DHT22;30138;20.964;105.830;2023-08-30T18:38:37;29.00;51.10
44435;DHT22;30138;20.964;105.830;2023-08-30T18:43:46;29.00;51.10
44435;DHT22;30138;20.964;105.830;2023-08-30T18:48:52;28.80;50.20
44435;DHT22;30138;20.964;105.830;2023-08-30T18:53:58;28.80;49.90
44435;DHT22;30138;20.964;105.830;2023-08-30T18:59:08;28.80;50.50
44435;DHT22;30138;20.964;105.830;2023-08-30T19:04:14;28.80;52.60
44435;DHT22;30138;20.964;105.830;2023-08-30T19:09:21;28.80;53.20
44435;DHT22;30138;20.964;105.830;2023-08-30T19:14:30;28.80;53.70
44435;DHT22;30138;20.964;105.830;2023-08-30T19:19:36;28.80;53.70
44435;DHT22;30138;20.964;105.830;2023-08-30T19:24:42;28.90;54.20
44435;DHT22;30138;20.964;105.830;2023-08-30T19:29:49;28.90;55.70
44435;DHT22;30138;20.964;105.830;2023-08-30T19:34:56;28.80;54.00
44435;DHT22;30138;20.964;105.830;2023-08-30T19:40:03;28.90;56.60
44435;DHT22;30138;20.964;105.830;2023-08-30T19:45:15;28.80;53.90
44435;DHT22;30138;20.964;105.830;2023-08-30T19:50:22;28.90;56.50
44435;DHT22;30138;20.964;105.830;2023-08-30T19:55:29;28.80;54.40
44435;DHT22;30138;20.964;105.830;2023-08-30T20:00:36;28.80;55.80
44435;DHT22;30138;20.964;105.830;2023-08-30T20:05:50;28.70;55.00
44435;DHT22;30138;20.964;105.830;2023-08-30T20:11:01;28.70;55.10
44435;DHT22;30138;20.964;105.830;2023-08-30T20:16:09;28.80;56.30
44435;DHT22;30138;20.964;105.830;2023-08-30T20:21:14;28.70;54.50
44435;DHT22;30138;20.964;105.830;2023-08-30T20:26:21;28.70;56.80
44435;DHT22;30138;20.964;105.830;2023-08-30T20:31:28;28.70;53.90
44435;DHT22;30138;20.964;105.830;2023-08-30T20:36:35;28.70;56.00
44435;DHT22;30138;20.964;105.830;2023-08-30T20:41:41;28.60;54.60
44435;DHT22;30138;20.964;105.830;2023-08-30T20:46:49;28.60;55.10
44435;DHT22;30138;20.964;105.830;2023-08-30T20:51:55;28.60;55.90
44435;DHT22;30138;20.964;105.830;2023-08-30T20:57:02;28.50;54.30
44435;DHT22;30138;20.964;105.830;2023-08-30T21:02:11;28.60;56.60
44435;DHT22;30138;20.964;105.830;2023-08-30T21:07:17;28.40;53.80
44435;DHT22;30138;20.964;105.830;2023-08-30T21:12:23;28.50;56.00
44435;DHT22;30138;20.964;105.830;2023-08-30T21:17:31;28.40;54.50
44435;DHT22;30138;20.964;105.830;2023-08-30T21:22:37;28.40;55.20
44435;DHT22;30138;20.964;105.830;2023-08-30T21:27:43;28.40;55.60
44435;DHT22;30138;20.964;105.830;2023-08-30T21:32:50;28.40;54.90
44435;DHT22;30138;20.964;105.830;2023-08-30T21:37:56;28.40;56.80
44435;DHT22;30138;20.964;105.830;2023-08-30T21:43:02;28.30;54.80
44435;DHT22;30138;20.964;105.830;2023-08-30T21:48:10;28.40;57.40
44435;DHT22;30138;20.964;105.830;2023-08-30T21:53:16;28.30;54.40
44435;DHT22;30138;20.964;105.830;2023-08-30T21:58:22;28.30;56.80
44435;DHT22;30138;20.964;105.830;2023-08-30T22:03:30;28.20;54.40
44435;DHT22;30138;20.964;105.830;2023-08-30T22:08:36;28.30;57.60
44435;DHT22;30138;20.964;105.830;2023-08-30T22:13:42;28.30;54.80
44435;DHT22;30138;20.964;105.830;2023-08-30T22:18:54;28.30;57.50
44435;DHT22;30138;20.964;105.830;2023-08-30T22:24:00;28.30;55.20
44435;DHT22;30138;20.964;105.830;2023-08-30T22:29:07;28.30;57.50
44435;DHT22;30138;20.964;105.830;2023-08-30T22:34:14;28.20;55.50
44435;DHT22;30138;20.964;105.830;2023-08-30T22:39:20;28.20;57.60
44435;DHT22;30138;20.964;105.830;2023-08-30T22:44:27;28.20;55.70
44435;DHT22;30138;20.964;105.830;2023-08-30T22:49:34;28.30;57.50
44435;DHT22;30138;20.964;105.830;2023-08-30T22:54:40;28.20;55.90
44435;DHT22;30138;20.964;105.830;2023-08-30T22:59:46;28.30;57.20
44435;DHT22;30138;20.964;105.830;2023-08-30T23:04:53;28.20;55.90
44435;DHT22;30138;20.964;105.830;2023-08-30T23:10:00;28.20;56.90
44435;DHT22;30138;20.964;105.830;2023-08-30T23:15:07;28.20;56.20
44435;DHT22;30138;20.964;105.830;2023-08-30T23:20:16;28.20;56.90
44435;DHT22;30138;20.964;105.830;2023-08-30T23:25:30;28.10;56.60
44435;DHT22;30138;20.964;105.830;2023-08-30T23:30:39;28.20;56.60
44435;DHT22;30138;20.964;105.830;2023-08-30T23:35:50;28.10;56.90
44435;DHT22;30138;20.964;105.830;2023-08-30T23:40:57;28.10;56.10
44435;DHT22;30138;20.964;105.830;2023-08-30T23:46:03;28.10;57.40
44435;DHT22;30138;20.964;105.830;2023-08-30T23:51:11;28.10;56.20
44435;DHT22;30138;20.964;105.830;2023-08-30T23:56:16;28.10;57.70
